createdAt,value
2018-02-16T00:00:16.336Z,28.60
2018-02-16T00:02:44.571Z,20.95
2018-02-16T00:05:13.576Z,21.05
2018-02-16T00:07:41.811Z,18.50
2018-02-16T00:10:10.873Z,28.53
2018-02-16T00:12:39.107Z,26.17
2018-02-16T00:15:08.100Z,21.70
2018-02-16T00:17:37.423Z,25.55
2018-02-16T00:20:06.059Z,22.87
2018-02-16T00:22:34.304Z,24.63
2018-02-16T00:25:02.951Z,29.75
2018-02-16T00:27:31.183Z,34.77
2018-02-16T00:29:59.435Z,25.80
2018-02-16T00:32:27.817Z,28.23
2018-02-16T00:34:56.826Z,33.15
2018-02-16T00:37:26.428Z,29.57
2018-02-16T00:39:55.314Z,26.02
2018-02-16T00:42:23.548Z,31.12
2018-02-16T00:44:53.135Z,27.55
2018-02-16T00:47:21.652Z,24.67
2018-02-16T00:49:51.235Z,39.60
2018-02-16T00:52:20.487Z,25.45
2018-02-16T00:57:24.484Z,25.83
2018-02-16T00:59:54.219Z,26.02
2018-02-16T01:02:22.451Z,28.15
2018-02-16T01:04:50.994Z,32.72
2018-02-16T01:07:19.227Z,26.90
2018-02-16T01:09:48.236Z,29.20
2018-02-16T01:14:53.024Z,24.37
2018-02-16T01:17:22.767Z,29.60
2018-02-16T01:19:51.767Z,24.40
2018-02-16T01:22:20.436Z,38.45
2018-02-16T01:24:49.044Z,30.92
2018-02-16T01:27:17.283Z,32.63
2018-02-16T01:29:46.911Z,24.58
2018-02-16T01:32:15.543Z,32.28
2018-02-16T01:34:43.783Z,32.05
2018-02-16T01:37:15.863Z,29.33
2018-02-16T01:39:46.035Z,26.90
2018-02-16T01:42:15.648Z,29.80
2018-02-16T01:52:39.657Z,33.72
2018-02-16T01:55:08.283Z,42.67
2018-02-16T01:57:36.915Z,29.75
2018-02-16T02:00:06.527Z,28.45
2018-02-16T02:02:35.528Z,29.67
2018-02-16T02:05:04.943Z,25.15
2018-02-16T02:07:33.269Z,30.75
2018-02-16T02:10:03.022Z,29.70
2018-02-16T02:12:31.259Z,27.83
2018-02-16T02:15:00.863Z,25.45
2018-02-16T02:17:30.248Z,29.33
2018-02-16T02:19:58.511Z,25.58
2018-02-16T02:22:27.900Z,27.60
2018-02-16T02:24:57.642Z,29.25
2018-02-16T02:27:25.871Z,26.73
2018-02-16T02:29:55.164Z,28.10
2018-02-16T02:32:23.392Z,25.70
2018-02-16T02:34:53.135Z,27.75
2018-02-16T02:37:21.609Z,32.25
2018-02-16T02:39:51.080Z,31.25
2018-02-16T02:42:19.311Z,35.28
2018-02-16T02:44:47.838Z,27.45
2018-02-16T02:47:16.832Z,34.78
2018-02-16T02:49:45.060Z,37.55
2018-02-16T02:52:14.443Z,38.35
2018-02-16T02:54:43.071Z,30.25
2018-02-16T02:57:11.304Z,36.72
2018-02-16T02:59:40.352Z,29.90
2018-02-16T03:02:09.351Z,35.90
2018-02-16T03:04:37.575Z,40.45
2018-02-16T03:07:05.967Z,41.03
2018-02-16T03:09:34.203Z,37.20
2018-02-16T03:12:02.496Z,42.53
2018-02-16T03:14:31.071Z,37.10
2018-02-16T03:17:00.090Z,33.33
2018-02-16T03:19:28.332Z,41.13
2018-02-16T03:21:56.880Z,36.67
2018-02-16T03:24:25.115Z,39.55
2018-02-16T03:26:53.356Z,31.90
2018-02-16T03:29:23.220Z,31.35
2018-02-16T03:31:52.955Z,36.10
2018-02-16T03:34:21.959Z,38.90
2018-02-16T03:36:51.988Z,40.85
2018-02-16T03:39:20.227Z,34.55
2018-02-16T03:41:50.862Z,28.52
2018-02-16T03:44:20.880Z,28.83
2018-02-16T03:46:49.520Z,31.85
2018-02-16T03:49:18.155Z,33.88
2018-02-16T03:51:46.647Z,37.22
2018-02-16T03:54:16.235Z,30.80
2018-02-16T03:56:44.349Z,31.83
2018-02-16T03:59:12.989Z,31.77
2018-02-16T04:01:41.983Z,30.90
2018-02-16T04:04:10.220Z,27.53
2018-02-16T04:06:39.125Z,38.70
2018-02-16T04:09:07.355Z,36.53
2018-02-16T04:11:36.365Z,31.58
2018-02-16T04:14:05.672Z,33.58
2018-02-16T04:16:34.686Z,28.77
2018-02-16T04:19:03.321Z,31.65
2018-02-16T04:21:31.951Z,31.87
2018-02-16T04:24:00.203Z,28.40
2018-02-16T04:26:29.799Z,37.63
2018-02-16T04:28:58.062Z,41.30
2018-02-16T04:31:26.300Z,36.03
2018-02-16T04:33:54.523Z,35.40
2018-02-16T04:41:32.474Z,35.85
2018-02-16T04:44:03.343Z,34.93
2018-02-16T04:46:32.751Z,32.90
2018-02-16T04:49:02.727Z,37.92
2018-02-16T04:51:30.849Z,26.67
2018-02-16T04:53:59.104Z,28.90
2018-02-16T04:56:28.107Z,33.92
2018-02-16T04:58:56.736Z,36.58
2018-02-16T05:01:24.968Z,37.67
2018-02-16T05:03:53.348Z,34.65
2018-02-16T05:06:21.584Z,43.35
2018-02-16T05:08:50.951Z,36.40
2018-02-16T05:11:20.283Z,34.27
2018-02-16T05:13:48.542Z,37.65
2018-02-16T05:16:18.152Z,32.80
2018-02-16T05:18:46.520Z,37.03
2018-02-16T05:21:16.107Z,35.30
2018-02-16T05:23:44.219Z,37.72
2018-02-16T05:26:13.668Z,45.70
2018-02-16T05:28:42.668Z,34.55
2018-02-16T05:31:10.908Z,37.50
2018-02-16T05:33:39.432Z,35.40
2018-02-16T05:36:09.182Z,37.13
2018-02-16T05:38:37.475Z,42.45
2018-02-16T05:41:06.646Z,40.30
2018-02-16T05:43:34.884Z,41.20
2018-02-16T05:46:04.843Z,38.22
2018-02-16T05:48:34.036Z,40.17
2018-02-16T05:51:02.263Z,26.10
2018-02-16T05:53:31.260Z,40.40
2018-02-16T05:56:00.474Z,34.78
2018-02-16T05:58:29.476Z,33.88
2018-02-16T06:00:57.712Z,32.67
2018-02-16T06:03:28.255Z,37.80
2018-02-16T06:05:56.487Z,34.03
2018-02-16T06:08:24.748Z,32.75
2018-02-16T06:10:55.123Z,32.17
2018-02-16T06:13:24.129Z,34.55
2018-02-16T06:15:53.735Z,34.03
2018-02-16T06:18:22.725Z,36.88
2018-02-16T06:20:50.960Z,29.02
2018-02-16T06:23:20.323Z,33.35
2018-02-16T06:25:49.434Z,27.33
2018-02-16T06:28:19.010Z,33.15
2018-02-16T06:30:47.123Z,40.40
2018-02-16T06:33:15.776Z,32.75
2018-02-16T06:35:44.023Z,26.35
2018-02-16T06:38:12.258Z,32.38
2018-02-16T06:43:15.846Z,30.08
2018-02-16T06:45:44.081Z,28.42
2018-02-16T06:48:12.499Z,34.70
2018-02-16T06:50:42.804Z,38.47
2018-02-16T06:53:11.810Z,36.00
2018-02-16T06:55:40.811Z,31.37
2018-02-16T06:58:09.207Z,36.17
2018-02-16T07:00:38.969Z,32.60
2018-02-16T07:03:08.345Z,28.85
2018-02-16T07:08:13.146Z,31.45
2018-02-16T07:10:41.280Z,31.35
2018-02-16T07:13:09.525Z,25.95
2018-02-16T07:15:39.287Z,35.47
2018-02-16T07:18:07.548Z,31.67
2018-02-16T07:20:35.810Z,37.17
2018-02-16T07:23:04.179Z,25.70
2018-02-16T07:25:32.411Z,28.95
2018-02-16T07:28:00.652Z,25.80
2018-02-16T07:30:29.419Z,26.35
2018-02-16T07:32:57.663Z,28.98
2018-02-16T07:35:25.913Z,34.70
2018-02-16T07:37:54.428Z,27.83
2018-02-16T07:40:22.659Z,25.73
2018-02-16T07:42:51.659Z,23.73
2018-02-16T07:45:21.273Z,26.03
2018-02-16T07:47:50.275Z,24.10
2018-02-16T07:50:18.884Z,28.70
2018-02-16T07:52:48.519Z,25.95
2018-02-16T07:55:16.756Z,25.10
2018-02-16T07:57:44.992Z,28.90
2018-02-16T08:00:13.495Z,28.65
2018-02-16T08:02:41.747Z,37.95
2018-02-16T08:05:11.132Z,22.62
2018-02-16T08:10:14.078Z,26.40
2018-02-16T08:12:42.318Z,26.33
2018-02-16T08:15:11.323Z,20.12
2018-02-16T08:17:40.221Z,23.58
2018-02-16T08:20:08.464Z,23.07
2018-02-16T08:22:37.832Z,24.20
2018-02-16T08:25:06.775Z,16.17
2018-02-16T08:27:35.000Z,16.67
2018-02-16T08:30:03.996Z,14.93
2018-02-16T08:32:32.590Z,18.50
2018-02-16T08:35:00.835Z,23.33
2018-02-16T08:37:29.043Z,19.57
2018-02-16T08:42:31.731Z,24.47
2018-02-16T08:45:00.727Z,19.50
2018-02-16T08:47:28.955Z,21.33
2018-02-16T08:49:59.055Z,14.97
2018-02-16T08:52:30.896Z,20.40
2018-02-16T08:54:59.144Z,15.37
2018-02-16T08:57:28.204Z,11.97
2018-02-16T08:59:57.578Z,12.60
2018-02-16T09:02:25.807Z,14.33
2018-02-16T09:04:54.187Z,16.73
2018-02-16T09:07:22.416Z,17.70
2018-02-16T09:09:51.040Z,11.73
2018-02-16T09:12:23.942Z,20.70
2018-02-16T09:14:52.172Z,14.50
2018-02-16T09:17:20.400Z,17.47
2018-02-16T09:19:49.084Z,13.50
2018-02-16T09:22:17.304Z,11.60
2018-02-16T09:24:46.495Z,16.90
2018-02-16T09:27:15.635Z,12.73
2018-02-16T09:29:43.855Z,11.27
2018-02-16T09:32:12.088Z,13.80
2018-02-16T09:34:41.322Z,13.50
2018-02-16T09:37:09.551Z,14.03
2018-02-16T09:39:40.560Z,11.70
2018-02-16T09:42:11.076Z,11.30
2018-02-16T09:44:39.324Z,12.70
2018-02-16T09:47:07.574Z,17.10
2018-02-16T09:49:37.835Z,15.90
2018-02-16T09:52:06.064Z,18.10
2018-02-16T09:54:35.980Z,12.70
2018-02-16T09:57:04.860Z,17.60
2018-02-16T09:59:34.228Z,14.50
2018-02-16T10:02:02.458Z,19.73
2018-02-16T10:04:32.363Z,14.23
2018-02-16T10:07:00.592Z,14.47
2018-02-16T10:09:28.823Z,19.13
2018-02-16T10:11:58.775Z,17.20
2018-02-16T10:14:27.780Z,10.80
2018-02-16T10:16:56.789Z,11.83
2018-02-16T10:19:26.047Z,16.57
2018-02-16T10:21:55.039Z,13.17
2018-02-16T10:24:23.272Z,13.50
2018-02-16T10:26:52.044Z,11.00
2018-02-16T10:29:20.270Z,16.40
2018-02-16T10:31:49.631Z,13.23
2018-02-16T10:36:53.163Z,11.00
2018-02-16T10:39:21.779Z,13.57
2018-02-16T10:41:50.809Z,12.47
2018-02-16T10:44:19.243Z,14.10
2018-02-16T10:46:48.231Z,9.93
2018-02-16T10:49:16.452Z,10.97
2018-02-16T10:51:45.036Z,16.53
2018-02-16T10:54:14.610Z,10.93
2018-02-16T10:56:45.068Z,19.13
2018-02-16T10:59:14.141Z,12.17
2018-02-16T11:01:43.495Z,5.80
2018-02-16T11:04:17.487Z,11.97
2018-02-16T11:06:49.042Z,12.80
2018-02-16T11:09:20.776Z,8.70
2018-02-16T11:11:49.259Z,10.43
2018-02-16T11:14:18.260Z,11.37
2018-02-16T11:16:47.260Z,9.33
2018-02-16T11:19:15.488Z,12.27
2018-02-16T11:21:43.729Z,15.27
2018-02-16T11:24:13.491Z,12.00
2018-02-16T11:26:42.115Z,9.07
2018-02-16T11:29:10.365Z,11.80
2018-02-16T11:31:40.305Z,10.57
2018-02-16T11:34:09.309Z,12.07
2018-02-16T11:36:38.405Z,13.80
2018-02-16T11:39:06.891Z,8.10
2018-02-16T11:41:36.472Z,13.33
2018-02-16T11:44:04.984Z,11.03
2018-02-16T11:46:35.703Z,12.23
2018-02-16T11:49:03.820Z,8.90
2018-02-16T11:51:32.036Z,9.17
2018-02-16T11:54:03.015Z,7.90
2018-02-16T11:56:31.636Z,11.10
2018-02-16T11:59:00.260Z,8.40
2018-02-16T12:01:30.367Z,8.43
2018-02-16T12:03:59.723Z,8.30
2018-02-16T12:06:27.951Z,8.53
2018-02-16T12:08:57.796Z,11.50
2018-02-16T12:11:26.016Z,7.73
2018-02-16T12:13:54.251Z,9.60
2018-02-16T12:18:57.495Z,10.23
2018-02-16T12:21:26.483Z,7.70
2018-02-16T12:23:55.108Z,18.90
2018-02-16T12:26:23.993Z,7.63
2018-02-16T12:28:52.996Z,14.77
2018-02-16T12:31:21.228Z,12.53
2018-02-16T12:33:50.596Z,17.73
2018-02-16T12:36:19.215Z,14.47
2018-02-16T12:38:47.451Z,10.10
2018-02-16T12:41:15.908Z,10.73
2018-02-16T12:43:45.644Z,9.20
2018-02-16T12:46:15.376Z,8.30
2018-02-16T12:48:44.920Z,5.80
2018-02-16T12:51:13.903Z,7.30
2018-02-16T12:53:42.123Z,8.20
2018-02-16T12:56:13.004Z,8.20
2018-02-16T12:58:42.574Z,6.30
2018-02-16T13:01:10.865Z,9.10
2018-02-16T13:03:40.456Z,9.10
2018-02-16T13:06:09.443Z,5.73
2018-02-16T13:08:39.030Z,8.83
2018-02-16T13:11:09.648Z,6.93
2018-02-16T13:13:38.646Z,7.83
2018-02-16T13:16:06.875Z,7.23
2018-02-16T13:18:36.128Z,7.67
2018-02-16T13:21:05.129Z,8.20
2018-02-16T13:23:34.849Z,10.87
2018-02-16T13:26:04.103Z,9.63
2018-02-16T13:28:32.361Z,7.97
2018-02-16T13:31:01.700Z,7.27
2018-02-16T13:33:30.942Z,8.93
2018-02-16T13:35:59.928Z,7.17
2018-02-16T13:38:28.143Z,8.20
2018-02-16T13:40:58.107Z,8.60
2018-02-16T13:43:26.204Z,11.13
2018-02-16T13:45:54.428Z,5.83
2018-02-16T13:48:24.359Z,6.07
2018-02-16T13:50:53.240Z,11.20
2018-02-16T13:53:22.616Z,6.33
2018-02-16T13:55:52.061Z,5.57
2018-02-16T13:58:20.688Z,10.00
2018-02-16T14:00:48.912Z,8.03
2018-02-16T14:03:19.592Z,9.87
2018-02-16T14:05:47.821Z,4.80
2018-02-16T14:08:16.044Z,7.23
2018-02-16T14:10:46.372Z,6.50
2018-02-16T14:13:15.684Z,8.63
2018-02-16T14:15:43.912Z,10.00
2018-02-16T14:20:48.135Z,7.70
2018-02-16T14:23:17.868Z,10.50
2018-02-16T14:25:46.864Z,11.60
2018-02-16T14:28:15.299Z,8.73
2018-02-16T14:30:44.292Z,9.60
2018-02-16T14:33:12.516Z,8.00
2018-02-16T14:35:42.243Z,9.60
2018-02-16T14:38:10.732Z,8.93
2018-02-16T14:40:38.960Z,9.93
2018-02-16T14:43:07.990Z,10.50
2018-02-16T14:45:36.992Z,7.17
2018-02-16T14:48:06.600Z,6.33
2018-02-16T14:50:35.781Z,7.27
2018-02-16T14:53:05.527Z,10.83
2018-02-16T14:55:33.757Z,5.67
2018-02-16T14:58:02.117Z,7.10
2018-02-16T15:00:30.348Z,12.70
2018-02-16T15:02:58.563Z,7.07
2018-02-16T15:05:30.296Z,11.83
2018-02-16T15:07:58.524Z,11.00
2018-02-16T15:10:28.099Z,6.90
2018-02-16T15:12:56.519Z,7.95
2018-02-16T15:15:26.256Z,10.33
2018-02-16T15:17:55.848Z,5.50
2018-02-16T15:20:25.352Z,6.63
2018-02-16T15:22:54.927Z,9.20
2018-02-16T15:25:24.564Z,6.97
2018-02-16T15:27:54.111Z,9.13
2018-02-16T15:30:23.691Z,10.47
2018-02-16T15:32:53.171Z,5.57
2018-02-16T15:35:21.507Z,13.13
2018-02-16T15:37:51.084Z,10.07
2018-02-16T15:40:19.579Z,7.87
2018-02-16T15:42:48.360Z,13.53
2018-02-16T15:45:17.724Z,20.63
2018-02-16T15:47:47.299Z,15.80
2018-02-16T15:50:16.747Z,9.73
2018-02-16T15:52:46.322Z,15.00
2018-02-16T15:55:15.794Z,10.03
2018-02-16T15:57:44.435Z,9.57
2018-02-16T16:00:12.672Z,22.80
2018-02-16T16:02:40.907Z,12.43
2018-02-16T16:05:10.774Z,15.33
2018-02-16T16:07:41.287Z,8.70
2018-02-16T16:10:10.755Z,10.30
2018-02-16T16:12:39.528Z,7.23
2018-02-16T16:15:09.267Z,8.00
2018-02-16T16:17:37.505Z,8.23
2018-02-16T16:20:07.440Z,7.30
2018-02-16T16:22:38.247Z,11.47
2018-02-16T16:25:07.276Z,8.70
2018-02-16T16:27:36.036Z,12.17
2018-02-16T16:30:04.268Z,5.67
2018-02-16T16:32:32.487Z,9.83
2018-02-16T16:35:02.884Z,10.43
2018-02-16T16:37:31.875Z,6.60
2018-02-16T16:40:00.096Z,8.93
2018-02-16T16:42:29.319Z,11.60
2018-02-16T16:44:58.307Z,8.50
2018-02-16T16:47:26.544Z,12.43
2018-02-16T16:49:59.054Z,18.27
2018-02-16T16:52:27.932Z,11.30
2018-02-16T16:54:56.564Z,25.23
2018-02-16T16:57:25.757Z,10.77
2018-02-16T16:59:54.833Z,6.33
2018-02-16T17:02:23.836Z,8.93
2018-02-16T17:07:48.731Z,14.47
2018-02-16T17:10:17.396Z,15.60
2018-02-16T17:12:45.616Z,14.97
2018-02-16T17:15:15.703Z,21.17
2018-02-16T17:17:43.800Z,8.30
2018-02-16T17:20:12.067Z,12.77
2018-02-16T17:22:41.284Z,9.50
2018-02-16T17:25:09.956Z,13.33
2018-02-16T17:27:38.242Z,8.83
2018-02-16T17:30:07.028Z,6.00
2018-02-16T17:32:35.310Z,7.33
2018-02-16T17:35:04.344Z,18.20
2018-02-16T17:37:33.496Z,10.70
2018-02-16T17:40:01.732Z,10.47
2018-02-16T17:42:31.476Z,16.80
2018-02-16T17:45:00.048Z,11.10
2018-02-16T17:47:30.100Z,23.17
2018-02-16T17:49:59.111Z,11.00
2018-02-16T17:52:28.104Z,16.07
2018-02-16T17:54:57.468Z,13.23
2018-02-16T17:57:25.768Z,18.67
2018-02-16T17:59:54.424Z,13.57
2018-02-16T18:02:22.647Z,21.43
2018-02-16T18:04:52.223Z,9.30
2018-02-16T18:07:20.700Z,15.63
2018-02-16T18:09:49.308Z,12.90
2018-02-16T18:12:18.348Z,13.60
2018-02-16T18:14:47.558Z,14.40
2018-02-16T18:17:16.202Z,14.43
2018-02-16T18:19:44.424Z,11.37
2018-02-16T18:22:14.520Z,12.73
2018-02-16T18:24:42.760Z,12.33
2018-02-16T18:27:11.112Z,14.00
2018-02-16T18:29:41.176Z,12.37
2018-02-16T18:32:09.406Z,10.70
2018-02-16T18:34:37.631Z,13.43
2018-02-16T18:37:06.204Z,8.03
2018-02-16T18:39:34.431Z,11.93
2018-02-16T18:42:04.016Z,13.37
2018-02-16T18:44:34.263Z,18.70
2018-02-16T18:47:03.859Z,32.73
2018-02-16T18:49:31.992Z,24.40
2018-02-16T18:52:00.696Z,13.90
2018-02-16T18:54:30.237Z,17.47
2018-02-16T18:56:58.875Z,12.50
2018-02-16T18:59:27.324Z,13.43
2018-02-16T19:01:56.315Z,16.30
2018-02-16T19:04:24.544Z,16.37
2018-02-16T19:06:54.629Z,12.80
2018-02-16T19:09:23.624Z,11.07
2018-02-16T19:11:53.121Z,14.40
2018-02-16T19:14:21.687Z,17.23
2018-02-16T19:16:51.060Z,16.77
2018-02-16T19:19:19.418Z,10.90
2018-02-16T19:21:50.107Z,13.33
2018-02-16T19:24:19.476Z,15.97
2018-02-16T19:26:47.767Z,15.47
2018-02-16T19:29:17.048Z,21.77
2018-02-16T19:31:46.776Z,15.27
2018-02-16T19:34:14.868Z,14.33
2018-02-16T19:36:44.458Z,18.63
2018-02-16T19:39:13.863Z,12.93
2018-02-16T19:41:42.083Z,11.70
2018-02-16T19:44:10.828Z,15.80
2018-02-16T19:46:40.439Z,14.37
2018-02-16T19:49:09.919Z,22.00
2018-02-16T19:56:47.816Z,13.60
2018-02-16T20:01:51.595Z,13.40
2018-02-16T20:04:21.187Z,13.05
2018-02-16T20:06:49.308Z,13.87
2018-02-16T20:09:17.901Z,13.80
2018-02-16T20:11:46.387Z,18.70
2018-02-16T20:14:16.908Z,16.40
2018-02-16T20:16:47.702Z,12.88
2018-02-16T20:19:16.014Z,15.85
2018-02-16T20:21:44.875Z,18.37
2018-02-16T20:26:48.177Z,14.07
2018-02-16T20:29:16.408Z,14.00
2018-02-16T20:31:45.868Z,20.08
2018-02-16T20:34:15.560Z,17.00
2018-02-16T20:36:44.560Z,15.98
2018-02-16T20:39:12.800Z,18.43
2018-02-16T20:41:42.080Z,14.48
2018-02-16T20:44:11.084Z,19.43
2018-02-16T20:46:40.673Z,11.70
2018-02-16T20:49:09.484Z,24.17
2018-02-16T20:51:37.720Z,15.53
2018-02-16T20:54:05.965Z,12.35
2018-02-16T20:56:35.884Z,14.85
2018-02-16T20:59:05.636Z,17.52
2018-02-16T21:01:34.303Z,19.27
2018-02-16T21:04:02.932Z,14.25
2018-02-16T21:06:32.736Z,21.90
2018-02-16T21:09:00.984Z,20.58
2018-02-16T21:11:31.047Z,15.30
2018-02-16T21:14:00.664Z,21.20
2018-02-16T21:16:30.429Z,21.08
2018-02-16T21:18:59.767Z,20.77
2018-02-16T21:21:28.777Z,21.65
2018-02-16T21:23:57.003Z,16.65
2018-02-16T21:26:27.418Z,12.27
2018-02-16T21:28:57.023Z,12.35
2018-02-16T21:31:25.899Z,14.75
2018-02-16T21:33:55.288Z,13.68
2018-02-16T21:36:24.879Z,13.68
2018-02-16T21:38:53.759Z,12.90
2018-02-16T21:41:22.361Z,14.70
2018-02-16T22:37:51.780Z,17.23
2018-02-16T22:40:20.415Z,13.70
2018-02-16T22:42:48.659Z,18.92
2018-02-16T22:45:17.365Z,17.80
2018-02-16T22:47:46.359Z,16.00
2018-02-16T22:50:14.587Z,12.02
2018-02-16T22:52:43.188Z,13.57
2018-02-16T22:55:12.923Z,13.70
2018-02-16T22:57:41.920Z,13.50
2018-02-16T23:02:45.520Z,11.40
2018-02-16T23:05:14.520Z,11.43
2018-02-16T23:07:44.260Z,14.87
2018-02-16T23:10:12.828Z,16.95
2018-02-16T23:12:42.195Z,20.17
2018-02-16T23:15:10.423Z,14.85
2018-02-16T23:17:39.843Z,19.83
2018-02-16T23:20:08.472Z,14.77
2018-02-16T23:22:36.695Z,13.27
2018-02-16T23:25:05.504Z,16.83
2018-02-16T23:27:34.134Z,14.23
2018-02-16T23:30:02.371Z,12.48
2018-02-16T23:32:32.479Z,15.23
2018-02-16T23:35:02.131Z,23.27
2018-02-16T23:37:30.656Z,14.68
2018-02-16T23:40:00.267Z,15.48
2018-02-16T23:42:28.832Z,13.50
2018-02-16T23:44:57.828Z,14.87
2018-02-16T23:47:27.574Z,14.13
2018-02-16T23:49:56.564Z,19.85
2018-02-16T23:52:26.306Z,14.95
2018-02-16T23:54:54.851Z,14.38
2018-02-16T23:57:23.475Z,18.20
2018-02-16T23:59:51.721Z,17.55
